createdAt,value
2018-11-27T00:00:57.032Z,0
2018-11-27T00:02:06.875Z,0
2018-11-27T00:03:17.221Z,0
2018-11-27T00:04:27.316Z,0
2018-11-27T00:05:37.458Z,0
2018-11-27T00:06:47.585Z,0
2018-11-27T00:07:57.676Z,0
2018-11-27T00:09:07.755Z,0
2018-11-27T00:10:17.836Z,0
2018-11-27T00:11:27.997Z,0
2018-11-27T00:12:37.537Z,0
2018-11-27T00:13:47.580Z,0
2018-11-27T00:14:57.397Z,0
2018-11-27T00:16:10.413Z,0
2018-11-27T00:17:20.537Z,0
2018-11-27T00:18:30.608Z,0
2018-11-27T00:19:40.848Z,0
2018-11-27T00:20:50.908Z,0
2018-11-27T00:22:00.649Z,0
2018-11-27T00:23:10.766Z,0
2018-11-27T00:24:20.818Z,0
2018-11-27T00:25:30.923Z,0
2018-11-27T00:26:40.980Z,0
2018-11-27T00:27:51.046Z,0
2018-11-27T00:29:01.147Z,0
2018-11-27T00:30:10.957Z,0
2018-11-27T00:31:21.040Z,0
2018-11-27T00:32:30.859Z,0
2018-11-27T00:33:40.915Z,0
2018-11-27T00:34:50.738Z,0
2018-11-27T00:36:01.050Z,0
2018-11-27T00:37:11.173Z,0
2018-11-27T00:38:21.357Z,0
2018-11-27T00:39:31.477Z,0
2018-11-27T00:40:41.543Z,0
2018-11-27T00:41:51.343Z,0
2018-11-27T00:43:01.390Z,0
2018-11-27T00:44:11.210Z,0
2018-11-27T00:45:21.557Z,0
2018-11-27T00:46:31.402Z,0
2018-11-27T00:47:41.543Z,0
2018-11-27T00:48:51.099Z,0
2018-11-27T00:50:00.428Z,0
2018-11-27T00:51:10.482Z,0
2018-11-27T00:52:20.502Z,0
2018-11-27T00:53:30.554Z,0
2018-11-27T00:54:40.350Z,0
2018-11-27T00:55:49.898Z,0
2018-11-27T00:56:59.947Z,0
2018-11-27T00:58:09.733Z,0
2018-11-27T00:59:19.783Z,0
2018-11-27T01:00:29.598Z,0
2018-11-27T01:01:39.762Z,0
2018-11-27T01:02:50.179Z,0
2018-11-27T01:03:59.988Z,0
2018-11-27T01:05:10.046Z,0
2018-11-27T01:06:20.126Z,0
2018-11-27T01:07:30.203Z,0
2018-11-27T01:08:40.280Z,0
2018-11-27T01:09:50.355Z,0
2018-11-27T01:11:00.414Z,0
2018-11-27T01:12:10.201Z,0
2018-11-27T01:13:20.263Z,0
2018-11-27T01:14:30.309Z,0
2018-11-27T01:15:40.119Z,0
2018-11-27T01:16:50.200Z,0
2018-11-27T01:18:00.311Z,0
2018-11-27T01:19:10.138Z,0
2018-11-27T01:20:19.678Z,0
2018-11-27T01:21:29.480Z,0
2018-11-27T01:22:39.568Z,0
2018-11-27T01:23:49.617Z,0
2018-11-27T01:24:59.863Z,0
2018-11-27T01:26:09.930Z,0
2018-11-27T01:27:19.778Z,0
2018-11-27T01:28:29.838Z,0
2018-11-27T01:29:39.640Z,0
2018-11-27T01:30:49.700Z,0
2018-11-27T01:31:59.493Z,0
2018-11-27T01:33:09.611Z,0
2018-11-27T01:34:19.663Z,0
2018-11-27T01:35:29.734Z,0
2018-11-27T01:36:39.816Z,0
2018-11-27T01:37:49.956Z,0
2018-11-27T01:39:00.075Z,0
2018-11-27T01:40:11.229Z,0
2018-11-27T01:41:21.283Z,0
2018-11-27T01:42:31.355Z,0
2018-11-27T01:43:41.646Z,0
2018-11-27T01:44:51.499Z,0
2018-11-27T01:46:02.032Z,0
2018-11-27T01:47:12.104Z,0
2018-11-27T01:48:22.175Z,0
2018-11-27T01:49:32.236Z,0
2018-11-27T01:50:42.204Z,0
2018-11-27T01:51:52.321Z,0
2018-11-27T01:53:02.401Z,0
2018-11-27T01:54:12.222Z,0
2018-11-27T01:55:22.273Z,0
2018-11-27T01:56:32.112Z,0
2018-11-27T01:57:42.664Z,0
2018-11-27T01:58:52.511Z,0
2018-11-27T02:00:02.762Z,0
2018-11-27T02:01:12.813Z,0
2018-11-27T02:02:22.935Z,0
2018-11-27T02:03:33.020Z,0
2018-11-27T02:04:43.072Z,0
2018-11-27T02:05:53.139Z,0
2018-11-27T02:07:03.900Z,0
2018-11-27T02:08:14.056Z,0
2018-11-27T02:09:24.128Z,0
2018-11-27T02:10:34.018Z,0
2018-11-27T02:11:44.063Z,0
2018-11-27T02:12:53.869Z,0
2018-11-27T02:14:08.615Z,0
2018-11-27T02:15:18.678Z,0
2018-11-27T02:16:28.482Z,0
2018-11-27T02:17:38.689Z,0
2018-11-27T02:18:48.495Z,0
2018-11-27T02:19:58.600Z,0
2018-11-27T02:21:08.654Z,0
2018-11-27T02:22:18.714Z,0
2018-11-27T02:23:28.564Z,0
2018-11-27T02:24:38.369Z,0
2018-11-27T02:25:48.431Z,0
2018-11-27T02:26:58.515Z,0
2018-11-27T02:28:10.016Z,0
2018-11-27T02:29:20.075Z,0
2018-11-27T02:30:30.135Z,0
2018-11-27T02:31:39.997Z,0
2018-11-27T02:32:50.066Z,0
2018-11-27T02:34:00.112Z,0
2018-11-27T02:35:10.179Z,0
2018-11-27T02:36:20.232Z,0
2018-11-27T02:37:29.795Z,0
2018-11-27T02:38:39.952Z,0
2018-11-27T02:39:50.038Z,0
2018-11-27T02:41:00.121Z,0
2018-11-27T02:42:10.187Z,0
2018-11-27T02:43:20.268Z,0
2018-11-27T02:44:30.356Z,0
2018-11-27T02:45:40.481Z,0
2018-11-27T02:46:50.323Z,0
2018-11-27T02:48:01.682Z,0
2018-11-27T02:49:11.980Z,0
2018-11-27T02:50:22.171Z,0
2018-11-27T02:51:32.259Z,0
2018-11-27T02:52:42.363Z,0
2018-11-27T02:53:52.426Z,0
2018-11-27T02:55:02.524Z,0
2018-11-27T02:56:12.907Z,0
2018-11-27T02:57:23.081Z,0
2018-11-27T02:58:33.269Z,0
2018-11-27T02:59:43.332Z,0
2018-11-27T03:00:53.426Z,0
2018-11-27T03:02:03.253Z,0
2018-11-27T03:03:13.549Z,0
2018-11-27T03:35:02.153Z,0
2018-11-27T03:36:12.254Z,0
2018-11-27T03:37:22.312Z,0
2018-11-27T03:38:31.908Z,0
2018-11-27T03:39:41.991Z,0
2018-11-27T03:40:52.086Z,0
2018-11-27T03:42:02.208Z,0
2018-11-27T03:43:12.257Z,0
2018-11-27T03:44:22.321Z,0
2018-11-27T03:45:32.387Z,0
2018-11-27T03:46:42.488Z,0
2018-11-27T03:47:52.604Z,0
2018-11-27T03:49:05.383Z,0
2018-11-27T03:50:15.466Z,0
2018-11-27T03:51:25.260Z,0
2018-11-27T03:52:35.387Z,0
2018-11-27T03:53:45.450Z,0
2018-11-27T03:54:55.519Z,0
2018-11-27T03:56:05.311Z,0
2018-11-27T03:57:15.394Z,0
2018-11-27T03:58:25.363Z,0
2018-11-27T03:59:35.413Z,0
2018-11-27T04:00:45.476Z,0
2018-11-27T04:01:55.308Z,0
2018-11-27T04:03:06.270Z,0
2018-11-27T04:04:19.671Z,0
2018-11-27T04:05:33.151Z,0
2018-11-27T04:06:47.449Z,0
2018-11-27T04:08:03.350Z,0
2018-11-27T04:09:17.261Z,0
2018-11-27T04:10:30.469Z,0
2018-11-27T04:11:44.383Z,0
2018-11-27T04:12:58.375Z,0
2018-11-27T04:14:15.392Z,0
2018-11-27T04:15:27.230Z,0
2018-11-27T04:16:37.306Z,0
2018-11-27T04:17:47.383Z,0
2018-11-27T04:18:57.454Z,0
2018-11-27T04:20:07.054Z,0
2018-11-27T04:21:17.229Z,0
2018-11-27T04:22:27.292Z,0
2018-11-27T04:23:37.363Z,0
2018-11-27T04:24:47.439Z,0
2018-11-27T04:25:57.551Z,0
2018-11-27T04:27:07.622Z,0
2018-11-27T04:28:17.688Z,0
2018-11-27T04:29:27.806Z,0
2018-11-27T04:30:37.876Z,0
2018-11-27T04:31:48.239Z,0
2018-11-27T04:32:58.358Z,0
2018-11-27T04:34:08.435Z,0
2018-11-27T04:35:18.232Z,0
2018-11-27T04:36:28.050Z,0
2018-11-27T04:37:38.128Z,0
2018-11-27T04:38:48.251Z,0
2018-11-27T04:39:58.303Z,0
2018-11-27T04:41:08.487Z,0
2018-11-27T04:42:18.563Z,0
2018-11-27T04:43:28.713Z,0
2018-11-27T04:44:38.776Z,0
2018-11-27T04:45:48.851Z,0
2018-11-27T04:46:58.935Z,0
2018-11-27T04:48:11.564Z,0
2018-11-27T04:49:21.428Z,0
2018-11-27T04:50:31.256Z,0
2018-11-27T04:51:41.332Z,0
2018-11-27T04:52:51.406Z,0
2018-11-27T04:54:01.476Z,0
2018-11-27T04:55:11.601Z,0
2018-11-27T04:56:21.659Z,0
2018-11-27T04:57:31.726Z,0
2018-11-27T04:58:41.854Z,0
2018-11-27T04:59:51.907Z,0
2018-11-27T05:01:01.767Z,0
2018-11-27T05:02:11.860Z,0
2018-11-27T05:03:21.920Z,0
2018-11-27T05:04:31.969Z,0
2018-11-27T05:05:42.070Z,0
2018-11-27T05:06:51.626Z,0
2018-11-27T05:08:01.437Z,0
2018-11-27T05:09:11.515Z,0
2018-11-27T05:10:21.593Z,0
2018-11-27T05:11:31.641Z,0
2018-11-27T05:12:41.516Z,0
2018-11-27T05:13:51.579Z,0
2018-11-27T05:15:03.404Z,0
2018-11-27T05:16:13.445Z,0
2018-11-27T05:17:23.733Z,0
2018-11-27T05:18:33.845Z,0
2018-11-27T05:19:43.920Z,0
2018-11-27T05:20:53.725Z,0
2018-11-27T05:22:03.987Z,0
2018-11-27T05:23:14.049Z,0
2018-11-27T05:24:23.847Z,0
2018-11-27T05:25:33.908Z,0
2018-11-27T05:26:43.972Z,0
2018-11-27T05:27:54.044Z,0
2018-11-27T05:29:04.311Z,0
2018-11-27T05:30:14.653Z,0
2018-11-27T05:31:24.509Z,0
2018-11-27T05:32:34.081Z,0
2018-11-27T05:33:43.910Z,0
2018-11-27T05:34:53.954Z,0
2018-11-27T05:36:05.173Z,0
2018-11-27T05:37:14.989Z,0
2018-11-27T05:38:25.051Z,0
2018-11-27T05:39:35.119Z,0
2018-11-27T05:40:45.211Z,0
2018-11-27T05:41:55.326Z,0
2018-11-27T05:43:05.133Z,0
2018-11-27T05:44:15.183Z,0
2018-11-27T05:45:25.239Z,0
2018-11-27T05:46:35.023Z,0
2018-11-27T05:47:44.558Z,0
2018-11-27T05:48:54.610Z,0
2018-11-27T05:50:04.399Z,0
2018-11-27T05:51:14.212Z,0
2018-11-27T05:52:23.769Z,0
2018-11-27T05:53:33.678Z,0
2018-11-27T05:54:43.950Z,0
2018-11-27T05:55:54.009Z,0
2018-11-27T05:57:04.050Z,4
2018-11-27T05:58:13.842Z,4
2018-11-27T05:59:23.962Z,0
2018-11-27T06:00:34.017Z,0
2018-11-27T06:01:43.893Z,4
2018-11-27T06:02:53.695Z,4
2018-11-27T06:04:04.152Z,4
2018-11-27T06:05:13.692Z,0
2018-11-27T06:06:23.509Z,4
2018-11-27T06:07:33.567Z,4
2018-11-27T06:08:43.866Z,8
2018-11-27T06:09:53.761Z,4
2018-11-27T06:11:03.599Z,8
2018-11-27T06:12:13.423Z,8
2018-11-27T06:13:23.486Z,12
2018-11-27T06:14:33.546Z,12
2018-11-27T06:15:43.370Z,16
2018-11-27T06:16:53.436Z,16
2018-11-27T06:18:05.392Z,16
2018-11-27T06:19:15.457Z,20
2018-11-27T06:20:25.258Z,24
2018-11-27T06:21:35.345Z,24
2018-11-27T06:22:45.245Z,32
2018-11-27T06:23:55.301Z,36
2018-11-27T06:25:05.105Z,36
2018-11-27T06:26:14.905Z,44
2018-11-27T06:27:24.706Z,48
2018-11-27T06:28:34.791Z,56
2018-11-27T06:29:44.599Z,64
2018-11-27T06:30:54.661Z,72
2018-11-27T06:32:04.719Z,84
2018-11-27T06:33:14.766Z,84
2018-11-27T06:34:24.306Z,92
2018-11-27T06:35:34.121Z,100
2018-11-27T06:36:44.191Z,104
2018-11-27T06:37:54.203Z,112
2018-11-27T06:39:04.247Z,116
2018-11-27T06:40:14.397Z,116
2018-11-27T06:41:24.452Z,120
2018-11-27T06:42:34.284Z,120
2018-11-27T06:43:44.091Z,124
2018-11-27T06:44:54.135Z,132
2018-11-27T06:46:04.205Z,140
2018-11-27T06:47:14.536Z,148
2018-11-27T06:48:24.576Z,152
2018-11-27T06:49:34.513Z,156
2018-11-27T06:50:44.567Z,164
2018-11-27T06:51:54.623Z,172
2018-11-27T06:53:04.420Z,184
2018-11-27T06:54:14.490Z,184
2018-11-27T06:55:24.613Z,188
2018-11-27T06:56:34.671Z,196
2018-11-27T06:57:44.822Z,196
2018-11-27T06:58:54.628Z,212
2018-11-27T07:00:05.768Z,224
2018-11-27T07:01:16.042Z,232
2018-11-27T07:02:26.387Z,236
2018-11-27T07:03:36.245Z,252
2018-11-27T07:04:46.298Z,252
2018-11-27T07:05:56.367Z,252
2018-11-27T07:07:06.200Z,260
2018-11-27T07:08:16.309Z,264
2018-11-27T07:09:26.039Z,268
2018-11-27T07:10:35.588Z,276
2018-11-27T07:11:45.391Z,276
2018-11-27T07:12:55.179Z,280
2018-11-27T07:14:05.277Z,272
2018-11-27T07:15:15.386Z,288
2018-11-27T07:16:25.429Z,292
2018-11-27T07:17:35.240Z,312
2018-11-27T07:18:45.341Z,316
2018-11-27T07:19:55.449Z,320
2018-11-27T07:21:05.237Z,320
2018-11-27T07:22:15.276Z,336
2018-11-27T07:23:25.071Z,344
2018-11-27T07:24:35.188Z,340
2018-11-27T07:25:45.278Z,340
2018-11-27T07:27:00.295Z,360
2018-11-27T07:28:10.522Z,364
2018-11-27T07:29:20.379Z,368
2018-11-27T07:30:30.429Z,356
2018-11-27T07:31:40.239Z,364
2018-11-27T07:32:50.371Z,368
2018-11-27T07:34:00.424Z,376
2018-11-27T07:35:10.508Z,380
2018-11-27T07:36:20.576Z,376
2018-11-27T07:37:30.656Z,376
2018-11-27T07:38:40.799Z,384
2018-11-27T07:39:51.055Z,380
2018-11-27T07:41:01.120Z,400
2018-11-27T07:42:11.337Z,408
2018-11-27T07:43:21.409Z,396
2018-11-27T07:44:31.460Z,428
2018-11-27T07:45:41.517Z,436
2018-11-27T07:46:51.569Z,452
2018-11-27T07:48:03.048Z,464
2018-11-27T07:49:13.218Z,476
2018-11-27T07:50:23.307Z,488
2018-11-27T07:51:33.365Z,496
2018-11-27T07:52:43.427Z,508
2018-11-27T07:53:53.517Z,520
2018-11-27T07:55:03.324Z,520
2018-11-27T07:56:13.434Z,532
2018-11-27T07:57:23.588Z,532
2018-11-27T07:58:33.757Z,532
2018-11-27T07:59:43.582Z,548
2018-11-27T08:00:53.663Z,552
2018-11-27T08:02:03.767Z,564
2018-11-27T08:03:13.827Z,576
2018-11-27T08:04:23.884Z,584
2018-11-27T08:05:33.666Z,592
2018-11-27T08:06:43.746Z,608
2018-11-27T08:07:53.651Z,616
2018-11-27T08:09:05.609Z,624
2018-11-27T08:10:15.653Z,632
2018-11-27T08:11:25.735Z,652
2018-11-27T08:12:35.778Z,664
2018-11-27T08:13:45.837Z,668
2018-11-27T08:14:55.900Z,692
2018-11-27T08:16:07.803Z,716
2018-11-27T08:17:17.593Z,736
2018-11-27T08:18:27.602Z,732
2018-11-27T08:19:37.658Z,744
2018-11-27T08:20:47.459Z,756
2018-11-27T08:21:57.547Z,760
2018-11-27T08:23:07.353Z,784
2018-11-27T08:24:17.417Z,780
2018-11-27T08:25:27.731Z,760
2018-11-27T08:26:37.543Z,756
2018-11-27T08:27:47.591Z,756
2018-11-27T08:28:57.664Z,756
2018-11-27T08:30:10.589Z,768
2018-11-27T08:31:20.698Z,772
2018-11-27T08:32:30.737Z,768
2018-11-27T08:33:40.577Z,772
2018-11-27T08:34:50.826Z,768
2018-11-27T08:36:01.395Z,800
2018-11-27T08:37:11.179Z,860
2018-11-27T08:38:21.250Z,912
2018-11-27T08:39:31.390Z,944
2018-11-27T08:40:41.442Z,1028
2018-11-27T08:41:51.500Z,1032
2018-11-27T08:43:01.578Z,972
2018-11-27T08:44:11.383Z,936
2018-11-27T08:45:21.459Z,904
2018-11-27T08:46:31.617Z,940
2018-11-27T08:47:41.669Z,928
2018-11-27T08:48:51.607Z,936
2018-11-27T08:50:01.655Z,956
2018-11-27T08:51:11.699Z,928
2018-11-27T08:52:21.790Z,888
2018-11-27T08:53:31.974Z,856
2018-11-27T08:54:42.346Z,840
2018-11-27T08:55:52.918Z,836
2018-11-27T08:57:04.738Z,820
2018-11-27T08:58:15.086Z,804
2018-11-27T08:59:25.157Z,816
2018-11-27T09:00:35.271Z,840
2018-11-27T09:01:45.335Z,860
2018-11-27T09:02:55.141Z,860
2018-11-27T09:04:05.205Z,900
2018-11-27T09:05:15.310Z,912
2018-11-27T09:06:25.372Z,928
2018-11-27T09:07:35.422Z,956
2018-11-27T09:08:46.465Z,952
2018-11-27T09:10:10.973Z,936
2018-11-27T09:11:21.088Z,912
2018-11-27T09:12:31.226Z,880
2018-11-27T09:13:42.241Z,844
2018-11-27T09:14:52.385Z,832
2018-11-27T09:16:02.454Z,820
2018-11-27T09:17:12.028Z,816
2018-11-27T09:18:21.820Z,812
2018-11-27T09:19:31.659Z,784
2018-11-27T09:20:41.476Z,772
2018-11-27T09:21:51.915Z,776
2018-11-27T09:23:02.157Z,752
2018-11-27T09:24:12.219Z,736
2018-11-27T09:25:22.296Z,728
2018-11-27T09:26:32.347Z,736
2018-11-27T09:27:42.453Z,736
2018-11-27T09:28:52.521Z,724
2018-11-27T09:30:03.172Z,728
2018-11-27T09:31:13.024Z,716
2018-11-27T09:32:23.095Z,728
2018-11-27T09:33:32.957Z,732
2018-11-27T09:34:42.996Z,724
2018-11-27T09:35:53.079Z,736
2018-11-27T09:37:03.140Z,716
2018-11-27T09:38:13.194Z,712
2018-11-27T09:39:23.016Z,704
2018-11-27T09:40:32.814Z,724
2018-11-27T09:41:42.694Z,728
2018-11-27T09:42:53.005Z,704
2018-11-27T09:44:05.216Z,688
2018-11-27T09:45:15.328Z,692
2018-11-27T09:46:25.413Z,700
2018-11-27T09:47:35.232Z,692
2018-11-27T09:48:45.276Z,680
2018-11-27T09:49:55.352Z,676
2018-11-27T09:51:05.408Z,688
2018-11-27T09:52:15.215Z,692
2018-11-27T09:53:25.274Z,720
2018-11-27T09:54:35.348Z,748
2018-11-27T09:55:45.571Z,820
2018-11-27T09:56:55.612Z,900
2018-11-27T09:58:08.010Z,860
2018-11-27T09:59:18.048Z,824
2018-11-27T10:00:28.103Z,792
2018-11-27T10:01:38.174Z,784
2018-11-27T10:02:48.304Z,792
2018-11-27T10:03:58.363Z,800
2018-11-27T10:05:08.448Z,832
2018-11-27T10:06:18.520Z,860
2018-11-27T10:07:28.602Z,904
2018-11-27T10:08:38.399Z,948
2018-11-27T10:09:48.452Z,972
2018-11-27T10:10:58.499Z,964
2018-11-27T10:12:09.084Z,960
2018-11-27T10:13:18.995Z,928
2018-11-27T10:14:28.802Z,900
2018-11-27T10:15:38.615Z,916
2018-11-27T10:16:48.725Z,892
2018-11-27T10:17:59.027Z,876
2018-11-27T10:19:09.101Z,872
2018-11-27T10:20:19.161Z,888
2018-11-27T10:21:29.232Z,872
2018-11-27T10:22:39.041Z,844
2018-11-27T10:23:49.202Z,844
2018-11-27T10:25:00.395Z,828
2018-11-27T10:26:10.191Z,804
2018-11-27T10:27:20.240Z,820
2018-11-27T10:28:34.543Z,824
2018-11-27T10:29:44.352Z,820
2018-11-27T10:30:54.415Z,832
2018-11-27T10:32:04.555Z,848
2018-11-27T10:33:14.681Z,908
2018-11-27T10:34:24.271Z,924
2018-11-27T10:35:34.330Z,912
2018-11-27T10:36:44.382Z,916
2018-11-27T10:37:54.470Z,928
2018-11-27T10:39:08.306Z,924
2018-11-27T10:40:18.219Z,900
2018-11-27T10:41:28.360Z,864
2018-11-27T10:42:38.459Z,840
2018-11-27T10:43:48.320Z,840
2018-11-27T10:44:58.455Z,844
2018-11-27T10:46:10.982Z,848
2018-11-27T10:47:20.831Z,832
2018-11-27T10:48:30.892Z,800
2018-11-27T10:49:40.948Z,768
2018-11-27T10:50:50.954Z,776
2018-11-27T10:52:01.822Z,788
2018-11-27T10:53:11.669Z,768
2018-11-27T10:54:21.780Z,724
2018-11-27T10:55:31.589Z,712
2018-11-27T10:56:41.709Z,680
2018-11-27T10:57:52.544Z,660
2018-11-27T10:59:03.092Z,656
2018-11-27T11:00:14.630Z,680
2018-11-27T11:01:26.320Z,664
2018-11-27T11:02:38.646Z,648
2018-11-27T11:03:51.414Z,648
2018-11-27T11:05:02.981Z,628
2018-11-27T11:06:14.488Z,644
2018-11-27T11:07:26.644Z,684
2018-11-27T11:08:38.814Z,724
2018-11-27T11:09:50.307Z,756
2018-11-27T11:11:04.425Z,824
2018-11-27T11:12:17.160Z,896
2018-11-27T11:13:29.175Z,904
2018-11-27T11:14:39.803Z,828
2018-11-27T11:15:50.940Z,700
2018-11-27T11:17:02.380Z,684
2018-11-27T11:18:13.844Z,620
2018-11-27T11:19:27.244Z,596
2018-11-27T11:20:39.087Z,596
2018-11-27T11:21:50.303Z,588
2018-11-27T11:23:01.652Z,620
2018-11-27T11:24:14.348Z,644
2018-11-27T11:25:39.833Z,644
2018-11-27T11:26:50.756Z,660
2018-11-27T11:28:02.220Z,668
2018-11-27T11:29:13.916Z,648
2018-11-27T11:30:25.479Z,580
2018-11-27T11:31:36.439Z,480
2018-11-27T11:32:47.434Z,408
2018-11-27T11:33:58.205Z,360
2018-11-27T11:35:12.393Z,328
2018-11-27T11:36:23.601Z,308
2018-11-27T11:37:35.493Z,292
2018-11-27T11:38:47.454Z,284
2018-11-27T11:39:59.081Z,304
2018-11-27T11:41:12.969Z,352
2018-11-27T11:42:28.850Z,400
2018-11-27T11:43:42.720Z,372
2018-11-27T11:44:56.718Z,372
2018-11-27T11:46:12.072Z,372
2018-11-27T11:47:25.659Z,356
2018-11-27T11:48:38.550Z,360
2018-11-27T11:49:52.087Z,396
2018-11-27T11:51:05.866Z,392
2018-11-27T11:52:20.115Z,356
2018-11-27T11:53:34.649Z,380
2018-11-27T11:54:47.828Z,440
2018-11-27T11:56:00.799Z,476
2018-11-27T11:57:14.612Z,500
2018-11-27T11:58:30.379Z,536
2018-11-27T11:59:45.919Z,624
2018-11-27T12:00:59.761Z,672
2018-11-27T12:02:13.956Z,680
2018-11-27T12:03:26.946Z,696
2018-11-27T12:04:40.037Z,712
2018-11-27T12:05:52.041Z,676
2018-11-27T12:07:05.838Z,684
2018-11-27T12:08:16.711Z,696
2018-11-27T12:09:27.770Z,688
2018-11-27T12:10:38.605Z,712
2018-11-27T12:11:50.598Z,752
2018-11-27T12:13:01.995Z,744
2018-11-27T12:14:12.914Z,668
2018-11-27T12:15:23.679Z,580
2018-11-27T12:16:34.413Z,544
2018-11-27T12:17:45.516Z,540
2018-11-27T12:18:56.435Z,544
2018-11-27T12:20:07.376Z,568
2018-11-27T12:21:18.241Z,600
2018-11-27T12:22:29.608Z,588
2018-11-27T12:23:40.577Z,616
2018-11-27T12:24:51.508Z,628
2018-11-27T12:26:02.376Z,664
2018-11-27T12:27:13.847Z,724
2018-11-27T12:28:26.612Z,808
2018-11-27T12:29:39.959Z,808
2018-11-27T12:30:52.666Z,744
2018-11-27T12:32:04.699Z,648
2018-11-27T12:33:16.008Z,556
2018-11-27T12:34:27.520Z,508
2018-11-27T12:35:38.696Z,488
2018-11-27T12:36:49.886Z,484
2018-11-27T12:38:03.054Z,488
2018-11-27T12:39:13.127Z,480
2018-11-27T12:40:23.169Z,472
2018-11-27T12:41:33.168Z,476
2018-11-27T12:42:43.118Z,484
2018-11-27T12:43:52.971Z,488
2018-11-27T12:45:04.011Z,484
2018-11-27T12:46:13.845Z,472
2018-11-27T12:47:25.048Z,460
2018-11-27T12:48:34.881Z,440
2018-11-27T12:49:44.942Z,428
2018-11-27T12:50:54.558Z,428
2018-11-27T12:52:04.635Z,432
2018-11-27T12:53:19.427Z,428
2018-11-27T12:54:29.505Z,432
2018-11-27T12:55:39.347Z,440
2018-11-27T12:56:51.258Z,456
2018-11-27T12:58:01.304Z,456
2018-11-27T12:59:11.590Z,444
2018-11-27T13:00:21.666Z,432
2018-11-27T13:01:31.783Z,428
2018-11-27T13:02:42.089Z,424
2018-11-27T13:03:52.179Z,408
2018-11-27T13:05:02.228Z,396
2018-11-27T13:06:12.334Z,396
2018-11-27T13:07:22.153Z,400
2018-11-27T13:08:32.245Z,396
2018-11-27T13:09:42.305Z,392
2018-11-27T13:10:52.374Z,380
2018-11-27T13:12:02.432Z,360
2018-11-27T13:13:12.245Z,356
2018-11-27T13:14:21.800Z,344
2018-11-27T13:15:31.863Z,332
2018-11-27T13:16:41.939Z,316
2018-11-27T13:17:52.257Z,308
2018-11-27T13:19:02.077Z,304
2018-11-27T13:20:11.876Z,300
2018-11-27T13:21:21.682Z,292
2018-11-27T13:22:31.773Z,292
2018-11-27T13:23:41.331Z,288
2018-11-27T13:33:01.864Z,252
2018-11-27T13:34:11.924Z,260
2018-11-27T13:35:21.491Z,264
2018-11-27T13:36:31.328Z,276
2018-11-27T13:37:41.464Z,288
2018-11-27T13:38:51.279Z,300
2018-11-27T13:40:01.082Z,308
2018-11-27T13:41:11.153Z,312
2018-11-27T13:42:21.212Z,304
2018-11-27T13:43:31.289Z,300
2018-11-27T13:44:41.411Z,308
2018-11-27T13:45:51.246Z,328
2018-11-27T13:47:01.325Z,320
2018-11-27T13:48:11.441Z,312
2018-11-27T13:49:21.504Z,316
2018-11-27T13:50:31.616Z,300
2018-11-27T13:51:41.684Z,284
2018-11-27T13:52:51.566Z,280
2018-11-27T13:54:01.400Z,300
2018-11-27T13:55:11.486Z,320
2018-11-27T13:56:21.095Z,316
2018-11-27T13:57:31.135Z,300
2018-11-27T13:58:41.196Z,276
2018-11-27T13:59:51.241Z,268
2018-11-27T14:01:01.338Z,260
2018-11-27T14:02:11.243Z,256
2018-11-27T14:03:21.351Z,264
2018-11-27T14:04:31.534Z,292
2018-11-27T14:05:41.853Z,324
2018-11-27T14:06:51.656Z,348
2018-11-27T14:08:03.316Z,348
2018-11-27T14:09:13.887Z,344
2018-11-27T14:10:24.029Z,324
2018-11-27T14:11:33.894Z,316
2018-11-27T14:12:43.988Z,312
2018-11-27T14:13:54.077Z,296
2018-11-27T14:15:04.166Z,284
2018-11-27T14:16:14.312Z,272
2018-11-27T14:17:24.405Z,272
2018-11-27T14:18:34.718Z,272
2018-11-27T14:19:44.836Z,252
2018-11-27T14:20:54.657Z,248
2018-11-27T14:22:04.495Z,244
2018-11-27T14:23:14.601Z,236
2018-11-27T14:24:24.439Z,224
2018-11-27T14:25:34.534Z,228
2018-11-27T14:26:44.340Z,216
2018-11-27T14:27:54.412Z,200
2018-11-27T14:29:04.440Z,204
2018-11-27T14:30:14.666Z,200
2018-11-27T14:31:24.729Z,188
2018-11-27T14:32:35.087Z,172
2018-11-27T14:33:45.096Z,164
2018-11-27T14:34:59.845Z,164
2018-11-27T14:36:10.101Z,160
2018-11-27T14:37:20.168Z,176
2018-11-27T14:38:30.223Z,176
2018-11-27T14:39:40.342Z,160
2018-11-27T14:40:50.429Z,152
2018-11-27T14:42:00.525Z,144
2018-11-27T14:43:10.055Z,136
2018-11-27T14:44:20.227Z,132
2018-11-27T14:45:30.298Z,124
2018-11-27T14:46:40.347Z,124
2018-11-27T14:47:50.406Z,116
2018-11-27T14:49:00.414Z,120
2018-11-27T14:50:11.481Z,112
2018-11-27T14:51:21.552Z,108
2018-11-27T14:52:31.358Z,100
2018-11-27T14:53:41.420Z,96
2018-11-27T14:54:51.507Z,84
2018-11-27T14:56:01.382Z,76
2018-11-27T14:57:11.463Z,68
2018-11-27T14:58:22.407Z,64
2018-11-27T14:59:32.217Z,60
2018-11-27T15:00:42.011Z,56
2018-11-27T15:01:52.072Z,52
2018-11-27T15:03:02.145Z,48
2018-11-27T15:04:12.279Z,48
2018-11-27T15:05:22.082Z,40
2018-11-27T15:06:31.615Z,36
2018-11-27T15:07:41.429Z,32
2018-11-27T15:08:51.596Z,28
2018-11-27T15:10:03.265Z,24
2018-11-27T15:11:17.572Z,24
2018-11-27T15:12:27.392Z,20
2018-11-27T15:13:36.939Z,16
2018-11-27T15:14:46.763Z,16
2018-11-27T15:15:56.814Z,12
2018-11-27T15:17:08.126Z,12
2018-11-27T15:18:18.261Z,12
2018-11-27T15:19:28.334Z,8
2018-11-27T15:20:38.412Z,8
2018-11-27T15:21:48.201Z,8
2018-11-27T15:22:58.260Z,4
2018-11-27T15:24:09.712Z,4
2018-11-27T15:25:19.618Z,4
2018-11-27T15:26:29.679Z,4
2018-11-27T15:27:39.756Z,4
2018-11-27T15:28:49.828Z,4
2018-11-27T15:30:00.015Z,0
2018-11-27T15:31:11.346Z,4
2018-11-27T15:32:21.429Z,4
2018-11-27T15:33:31.014Z,0
2018-11-27T15:34:41.098Z,0
2018-11-27T15:35:51.252Z,0
2018-11-27T15:37:01.336Z,0
2018-11-27T15:38:11.396Z,0
2018-11-27T15:39:20.959Z,0
2018-11-27T15:40:31.012Z,0
2018-11-27T15:41:40.873Z,0
2018-11-27T15:42:50.732Z,0
2018-11-27T15:44:00.554Z,0
2018-11-27T15:45:10.621Z,0
2018-11-27T15:46:20.698Z,0
2018-11-27T15:47:30.846Z,0
2018-11-27T15:48:40.930Z,0
2018-11-27T15:49:51.066Z,0
2018-11-27T15:51:01.184Z,0
2018-11-27T15:52:11.215Z,0
2018-11-27T15:53:21.343Z,0
2018-11-27T15:54:31.419Z,0
2018-11-27T15:55:41.485Z,0
2018-11-27T15:56:51.310Z,0
2018-11-27T15:58:01.406Z,0
2018-11-27T15:59:11.580Z,0
2018-11-27T16:00:21.186Z,0
2018-11-27T16:01:31.339Z,0
2018-11-27T16:02:41.156Z,0
2018-11-27T16:03:51.243Z,0
2018-11-27T16:05:01.378Z,0
2018-11-27T16:06:10.952Z,0
2018-11-27T16:07:20.994Z,0
2018-11-27T16:08:31.149Z,0
2018-11-27T16:09:41.257Z,0
2018-11-27T16:10:51.235Z,0
2018-11-27T16:12:01.661Z,0
2018-11-27T16:13:11.832Z,0
2018-11-27T16:14:21.465Z,0
2018-11-27T16:15:31.288Z,0
2018-11-27T16:16:55.731Z,0
2018-11-27T16:18:05.806Z,0
2018-11-27T16:19:15.910Z,0
2018-11-27T16:20:25.757Z,0
2018-11-27T16:21:50.447Z,0
2018-11-27T16:23:02.318Z,0
2018-11-27T16:24:12.427Z,0
2018-11-27T16:25:22.587Z,0
2018-11-27T16:26:33.345Z,0
2018-11-27T16:27:43.154Z,0
2018-11-27T16:28:53.230Z,0
2018-11-27T16:30:05.469Z,0
2018-11-27T16:31:15.635Z,0
2018-11-27T16:32:25.734Z,0
2018-11-27T16:33:35.346Z,0
2018-11-27T16:34:45.448Z,0
2018-11-27T16:35:55.547Z,0
2018-11-27T16:37:05.630Z,0
2018-11-27T16:38:15.586Z,0
2018-11-27T16:39:25.685Z,0
2018-11-27T16:40:35.500Z,0
2018-11-27T16:41:45.582Z,0
2018-11-27T16:42:55.705Z,0
2018-11-27T16:44:05.529Z,0
2018-11-27T16:45:15.602Z,0
2018-11-27T16:46:25.657Z,0
2018-11-27T16:47:35.722Z,0
2018-11-27T16:48:45.786Z,0
2018-11-27T16:49:55.874Z,0
2018-11-27T16:51:06.532Z,0
2018-11-27T16:52:16.348Z,0
2018-11-27T16:53:26.418Z,0
2018-11-27T16:54:36.469Z,0
2018-11-27T16:55:46.534Z,0
2018-11-27T16:56:56.654Z,0
2018-11-27T16:58:06.728Z,0
2018-11-27T16:59:16.794Z,0
2018-11-27T17:00:26.914Z,0
2018-11-27T17:01:36.747Z,0
2018-11-27T17:02:46.837Z,0
2018-11-27T17:03:58.162Z,0
2018-11-27T17:05:08.558Z,0
2018-11-27T17:06:18.647Z,0
2018-11-27T17:07:28.709Z,0
2018-11-27T17:08:38.944Z,0
2018-11-27T17:09:49.089Z,0
2018-11-27T17:10:59.206Z,0
2018-11-27T17:12:09.314Z,0
2018-11-27T17:13:19.479Z,0
2018-11-27T17:14:29.854Z,0
2018-11-27T17:15:39.952Z,0
2018-11-27T17:16:49.766Z,0
2018-11-27T17:17:59.874Z,0
2018-11-27T17:19:09.975Z,0
2018-11-27T17:20:20.061Z,0
2018-11-27T17:21:30.158Z,0
2018-11-27T17:22:39.962Z,0